Flight Track Log - Related Links

Times and Time Zones

All times are in EDT time to prevent confusion due to time zone crossing. See the SWA1810 flight status page for this flight to view local times or setup timezone preferences in your user account.

Time Position Orientation Groundspeed Altitude Reporting Facility
EDT Latitude Longitude Course Direction KTS MPH feet Rate Location/Type
Fri 05:57:31 PM 33.4333 -111.9833 87° East 174 200 2,000  Level Phoenix TRACON
Fri 05:59:05 PM 33.4375 -111.8856 87° East 223 257 4,900 2,269 Climbing Albuquerque Center
Fri 06:00:07 PM 33.4781 -111.8067 58° Northeast 266 306 7,900 2,661 Climbing Albuquerque Center
Fri 06:01:09 PM 33.5464 -111.7556 32° Northeast 289 333 10,400 2,565 Climbing Albuquerque Center
Fri 06:02:11 PM 33.6392 -111.7050 24° Northeast 345 397 13,200 2,976 Climbing Albuquerque Center
Fri 06:03:12 PM 33.7397 -111.7097 358° North 363 418 16,500 3,024 Climbing Albuquerque Center
Fri 06:04:14 PM 33.8439 -111.7172 357° North 376 433 19,400 2,903 Climbing Albuquerque Center
Fri 06:05:16 PM 33.9589 -111.7400 351° North 387 445 22,500 2,661 Climbing Albuquerque Center
Fri 06:06:18 PM 34.0700 -111.7622 351° North 401 461 24,900 2,341 Climbing Albuquerque Center
Fri 06:07:19 PM 34.1944 -111.7869 351° North 419 482 27,300 2,000 Climbing Albuquerque Center
Fri 06:08:21 PM 34.2939 -111.8081 350° North 425 489 29,000 2,226 Climbing Albuquerque Center
Fri 06:09:23 PM 34.4339 -111.8358 351° North 428 493 31,900 2,323 Climbing Albuquerque Center
Fri 06:10:25 PM 34.5467 -111.8589 350° North 422 486 33,800 1,024 Climbing Albuquerque Center
Fri 06:11:26 PM 34.6600 -111.8819 351° North 417 480 34,000 98 Climbing Albuquerque Center
Fri 06:12:28 PM 34.7731 -111.9039 351° North 415 478 34,000  Level Albuquerque Center
Fri 06:13:30 PM 34.8864 -111.9281 350° North 416 479 34,000  Level Albuquerque Center
Fri 06:14:32 PM 34.9997 -111.9506 351° North 415 478 34,000  Level Albuquerque Center
Fri 06:15:33 PM 35.1383 -111.9764 351° North 421 484 34,000  Level Albuquerque Center
Fri 06:16:35 PM 35.2533 -112.0008 350° North 423 487 34,000  Level Albuquerque Center
Fri 06:17:37 PM 35.3672 -112.0231 351° North 420 483 34,000  Level Albuquerque Center
Fri 06:18:38 PM 35.4814 -112.0472 350° North 420 483 34,000  Level Albuquerque Center
Fri 06:19:40 PM 35.5947 -112.0700 351° North 418 481 34,000  Level Albuquerque Center
Fri 06:20:45 PM 35.7333 -112.0986 350° North 424 488 34,000  Level Los Angeles Center
Fri 06:21:48 PM 35.8506 -112.1231 350° North 429 494 34,000  Level Los Angeles Center
Fri 06:22:50 PM 35.9669 -112.1467 351° North 429 494 34,000  Level Los Angeles Center
Fri 06:23:52 PM 36.1117 -112.1600 356° North 434 499 34,000  Level Los Angeles Center
Fri 06:24:54 PM 36.2289 -112.1694 356° North 430 495 34,000  Level Los Angeles Center
Fri 06:25:56 PM 36.3472 -112.1792 356° North 427 491 34,000  Level Los Angeles Center
Fri 06:26:58 PM 36.4642 -112.1906 356° North 423 487 34,000  Level Los Angeles Center
Fri 06:28:00 PM 36.5803 -112.2008 356° North 422 486 34,000  Level Los Angeles Center
Fri 06:29:02 PM 36.7197 -112.2133 356° North 420 483 34,000  Level Los Angeles Center
Fri 06:30:04 PM 36.8361 -112.2239 356° North 420 483 34,000  Level Los Angeles Center
Fri 06:31:06 PM 36.9533 -112.2347 356° North 422 486 34,000  Level Los Angeles Center
Fri 06:32:08 PM 37.0464 -112.2431 356° North 422 486 34,000  Level Los Angeles Center
Fri 06:33:10 PM 37.1869 -112.2567 356° North 423 487 34,000  Level Los Angeles Center
Fri 06:34:13 PM 37.3275 -112.2683 356° North 424 488 34,000  Level Los Angeles Center
Fri 06:35:15 PM 37.4447 -112.2803 355° North 425 489 34,000  Level Los Angeles Center
Fri 06:35:44 PM 37.4908 -112.2850 355° North 425 489 34,000  Level Salt Lake Center
Fri 06:36:46 PM 37.6083 -112.2964 356° North 426 490 34,000  Level Salt Lake Center
Fri 06:37:47 PM 37.7486 -112.2983 359° North 426 490 34,000  Level Salt Lake Center
Fri 06:38:49 PM 37.8664 -112.2814 North 428 493 34,000  Level Salt Lake Center
Fri 06:39:50 PM 37.9856 -112.2658 North 432 497 34,000  Level Salt Lake Center
Fri 06:40:52 PM 38.1039 -112.2492 North 430 495 34,000  Level Salt Lake Center
Fri 06:41:54 PM 38.2231 -112.2322 North 431 496 34,000  Level Salt Lake Center
Fri 06:42:55 PM 38.3411 -112.2156 North 429 494 34,000 -439 Level Salt Lake Center
Fri 06:43:57 PM 38.4606 -112.1994 North 431 496 33,100 -976 Descending Salt Lake Center
Fri 06:44:58 PM 38.6042 -112.1792 North 432 497 32,000 -537 Descending Salt Lake Center
Fri 06:46:00 PM 38.7228 -112.1617 North 430 495 32,000  Level Salt Lake Center
Fri 06:47:01 PM 38.8400 -112.1456 North 426 490 32,000  Level Salt Lake Center
Fri 06:48:03 PM 38.9572 -112.1300 North 424 488 32,000 -683 Level Salt Lake Center
Fri 06:49:04 PM 39.0750 -112.1139 North 426 490 30,600 -1,659 Descending Salt Lake Center
Fri 06:50:06 PM 39.1889 -112.0969 North 416 479 28,600 -2,032 Descending Salt Lake Center
Fri 06:51:08 PM 39.3133 -112.0797 North 405 466 26,400 -2,000 Descending Salt Lake Center
Fri 06:52:09 PM 39.4217 -112.0633 North 396 456 24,500 -1,854 Descending Salt Lake Center
Fri 06:53:11 PM 39.5258 -112.0497 North 384 442 22,600 -1,805 Descending Salt Lake Center
Fri 06:54:12 PM 39.6269 -112.0342 North 372 428 20,800 -1,707 Descending Salt Lake Center
Fri 06:55:14 PM 39.7247 -112.0208 North 361 415 19,100 -1,659 Descending Salt Lake Center
Fri 06:56:15 PM 39.8189 -112.0067 North 346 398 17,400 -1,902 Descending Salt Lake Center
Fri 06:57:17 PM 39.9258 -112.0008 North 335 386 15,200 -1,415 Descending Salt Lake Center
Fri 06:58:18 PM 40.0192 -111.9786 10° North 328 377 14,500 -850 Descending Salt Lake Center
Fri 06:59:24 PM 40.1183 -111.9728 North 325 374 13,400 -976 Descending Salt Lake Center
Fri 07:00:21 PM 40.1992 -111.9625 North 325 374 12,500 -958 Descending Salt Lake Center
Fri 07:01:23 PM 40.2839 -111.9606 North 307 353 11,500 -976 Descending Salt Lake Center
Fri 07:02:24 PM 40.3719 -111.9575 North 313 360 10,500 -787 Descending Salt Lake Center
Fri 07:03:25 PM 40.4550 -111.9572 360° North 300 345 9,900 -878 Descending Salt Lake Center
Fri 07:04:27 PM 40.5406 -111.9736 352° North 278 320 8,700 -1,317 Descending Salt Lake Center
Fri 07:05:28 PM 40.6175 -111.9814 356° North 273 314 7,200 -1,180 Descending Salt Lake Center
Fri 07:06:29 PM 40.6767 -111.9867 356° North 204 235 6,300 -992 Descending Salt Lake Center
Fri 07:07:29 PM 40.7253 -111.9928 355° North 164 189 5,200 -893 Descending Salt Lake Center
Fri 07:08:30 PM 40.7647 -111.9964 356° North 146 168 4,500 -689 Descending Salt Lake Center
Fri 07:10:00 PM 40.7833 -111.9667 North  Level FlightAware Approximate
Fri 07:17:00 PM 40.7884 -111.9778 North  Level Estimated

Login

Don't have an account? Register now (free) for customized features, flight alerts, and more!